createdAt,value
2023-02-07T00:01:34.845Z,0.75
2023-02-07T00:04:04.221Z,0.85
2023-02-07T00:06:35.307Z,0.82
2023-02-07T00:09:07.143Z,0.84
2023-02-07T00:11:37.282Z,0.77
2023-02-07T00:14:05.154Z,0.74
2023-02-07T00:16:33.470Z,0.77
2023-02-07T00:19:01.395Z,0.81
2023-02-07T00:21:31.115Z,0.80
2023-02-07T00:23:59.085Z,0.88
2023-02-07T00:26:28.223Z,0.88
2023-02-07T00:28:57.114Z,0.95
2023-02-07T00:31:28.479Z,1.04
2023-02-07T00:34:00.687Z,0.97
2023-02-07T00:36:32.738Z,0.94
2023-02-07T00:39:05.996Z,1.02
2023-02-07T00:41:34.501Z,0.98
2023-02-07T00:44:02.444Z,0.87
2023-02-07T00:46:30.991Z,0.82
2023-02-07T00:48:59.348Z,0.88
2023-02-07T00:51:28.098Z,0.88
2023-02-07T00:53:57.832Z,0.85
2023-02-07T00:56:29.317Z,0.83
2023-02-07T00:58:59.409Z,0.79
2023-02-07T01:01:27.680Z,0.63
2023-02-07T01:03:58.266Z,0.53
2023-02-07T01:06:27.946Z,0.51
2023-02-07T01:08:59.700Z,0.43
2023-02-07T01:11:30.080Z,0.37
2023-02-07T01:14:00.510Z,0.31
2023-02-07T01:16:32.125Z,0.24
2023-02-07T01:19:04.113Z,0.27
2023-02-07T01:21:32.060Z,0.24
2023-02-07T01:24:01.257Z,0.31
2023-02-07T01:26:29.278Z,0.30
2023-02-07T01:28:57.709Z,0.33
2023-02-07T01:31:26.056Z,0.33
2023-02-07T01:33:55.353Z,0.30
2023-02-07T01:36:24.419Z,0.31
2023-02-07T01:38:54.543Z,0.28
2023-02-07T01:41:26.597Z,0.33
2023-02-07T01:44:01.447Z,0.32
2023-02-07T01:46:32.546Z,0.32
2023-02-07T01:49:08.399Z,0.24
2023-02-07T01:51:39.670Z,0.34
2023-02-07T01:54:12.997Z,0.28
2023-02-07T01:56:48.523Z,0.33
2023-02-07T01:59:17.462Z,0.31
2023-02-07T02:01:46.743Z,0.30
2023-02-07T02:04:14.660Z,0.24
2023-02-07T02:06:43.940Z,0.21
2023-02-07T02:09:16.011Z,0.22
2023-02-07T02:12:22.555Z,0.19
2023-02-07T02:15:22.574Z,0.19
2023-02-07T02:18:12.222Z,0.18
2023-02-07T02:21:27.823Z,0.17
2023-02-07T02:24:25.078Z,0.10
2023-02-07T02:27:06.206Z,0.11
2023-02-07T02:30:09.298Z,0.09
2023-02-07T02:33:13.805Z,0.09
2023-02-07T02:35:56.694Z,0.06
2023-02-07T02:38:34.937Z,-0.03
2023-02-07T02:41:11.337Z,0.05
2023-02-07T02:43:45.787Z,0.11
2023-02-07T02:46:20.805Z,0.12
2023-02-07T02:48:53.004Z,0.05
2023-02-07T02:51:21.473Z,0.03
2023-02-07T02:53:53.881Z,0.01
2023-02-07T02:56:57.735Z,-0.05
2023-02-07T03:00:11.947Z,-0.06
2023-02-07T03:02:52.344Z,-0.03
2023-02-07T03:05:46.198Z,-0.08
2023-02-07T03:08:35.516Z,-0.14
2023-02-07T03:11:12.880Z,-0.13
2023-02-07T03:13:59.954Z,-0.17
2023-02-07T03:16:38.105Z,-0.13
2023-02-07T03:19:13.930Z,-0.15
2023-02-07T03:21:49.956Z,-0.16
2023-02-07T03:24:25.400Z,-0.16
2023-02-07T03:26:59.812Z,-0.15
2023-02-07T03:29:31.085Z,-0.20
2023-02-07T03:32:04.252Z,-0.17
2023-02-07T03:34:38.859Z,-0.15
2023-02-07T03:37:16.721Z,-0.21
2023-02-07T03:39:45.262Z,-0.32
2023-02-07T03:42:27.588Z,-0.25
2023-02-07T03:44:58.887Z,-0.31
2023-02-07T03:47:28.059Z,-0.33
2023-02-07T03:49:55.916Z,-0.35
2023-02-07T03:52:25.225Z,-0.35
2023-02-07T03:54:53.109Z,-0.29
2023-02-07T03:57:20.946Z,-0.28
2023-02-07T03:59:48.669Z,-0.22
2023-02-07T04:02:16.686Z,-0.13
2023-02-07T04:04:44.780Z,-0.06
2023-02-07T04:07:12.767Z,-0.03
2023-02-07T04:09:41.916Z,0.10
2023-02-07T04:12:09.866Z,0.10
2023-02-07T04:14:37.587Z,0.19
2023-02-07T04:17:05.451Z,0.19
2023-02-07T04:19:33.186Z,0.29
2023-02-07T04:22:01.090Z,0.34
2023-02-07T04:24:31.771Z,0.30
2023-02-07T04:27:00.965Z,0.14
2023-02-07T04:29:28.754Z,0.08
2023-02-07T04:31:58.844Z,0.12
2023-02-07T04:34:26.928Z,0.11
2023-02-07T04:36:55.095Z,0.10
2023-02-07T04:39:23.014Z,0.19
2023-02-07T04:41:50.775Z,0.13
2023-02-07T04:44:20.141Z,0.18
2023-02-07T04:46:47.993Z,0.16
2023-02-07T04:49:16.269Z,0.14
2023-02-07T04:51:44.016Z,0.04
2023-02-07T04:54:11.868Z,-0.08
2023-02-07T04:56:39.806Z,-0.09
2023-02-07T04:59:07.676Z,-0.07
2023-02-07T05:01:36.860Z,-0.16
2023-02-07T05:04:04.997Z,-0.23
2023-02-07T05:06:32.793Z,-0.34
2023-02-07T05:09:00.513Z,-0.40
2023-02-07T05:11:28.390Z,-0.39
2023-02-07T05:13:56.132Z,-0.33
2023-02-07T05:16:23.997Z,-0.24
2023-02-07T05:18:53.199Z,-0.25
2023-02-07T05:21:21.296Z,-0.29
2023-02-07T05:23:49.091Z,-0.33
2023-02-07T05:26:17.557Z,-0.39
2023-02-07T05:28:45.327Z,-0.53
2023-02-07T05:31:13.213Z,-0.56
2023-02-07T05:33:41.099Z,-0.57
2023-02-07T05:36:10.640Z,-0.59
2023-02-07T05:38:38.888Z,-0.65
2023-02-07T05:41:06.613Z,-0.64
2023-02-07T05:43:34.358Z,-0.59
2023-02-07T05:46:02.308Z,-0.61
2023-02-07T05:48:30.026Z,-0.61
2023-02-07T05:50:58.073Z,-0.67
2023-02-07T05:53:27.196Z,-0.66
2023-02-07T05:55:55.042Z,-0.72
2023-02-07T05:58:22.843Z,-0.75
2023-02-07T06:00:50.778Z,-0.81
2023-02-07T06:03:18.549Z,-0.91
2023-02-07T06:05:46.409Z,-0.93
2023-02-07T06:08:14.264Z,-0.94
2023-02-07T06:10:43.499Z,-0.88
2023-02-07T06:13:11.251Z,-0.84
2023-02-07T06:15:39.439Z,-0.86
2023-02-07T06:18:07.788Z,-0.88
2023-02-07T06:20:35.711Z,-0.90
2023-02-07T06:23:03.551Z,-0.93
2023-02-07T06:25:31.416Z,-0.90
2023-02-07T06:28:00.747Z,-0.84
2023-02-07T06:30:28.763Z,-0.81
2023-02-07T06:32:56.763Z,-0.79
2023-02-07T06:35:24.554Z,-0.80
2023-02-07T06:37:54.933Z,-0.82
2023-02-07T06:40:22.919Z,-0.91
2023-02-07T06:42:50.814Z,-0.87
2023-02-07T06:45:20.117Z,-0.87
2023-02-07T06:47:47.967Z,-0.92
2023-02-07T06:50:16.175Z,-0.96
2023-02-07T06:52:44.483Z,-0.92
2023-02-07T06:55:12.202Z,-0.93
2023-02-07T06:57:39.999Z,-0.96
2023-02-07T07:00:11.203Z,-0.96
2023-02-07T07:02:40.405Z,-0.96
2023-02-07T07:05:09.287Z,-0.96
2023-02-07T07:07:37.043Z,-1.04
2023-02-07T07:10:06.378Z,-0.98
2023-02-07T07:12:34.361Z,-1.09
2023-02-07T07:15:02.421Z,-1.09
2023-02-07T07:17:30.178Z,-1.03
2023-02-07T07:19:59.746Z,-0.99
2023-02-07T07:22:27.502Z,-0.99
2023-02-07T07:24:55.339Z,-0.95
2023-02-07T07:27:23.152Z,-0.93
2023-02-07T07:29:50.915Z,-0.89
2023-02-07T07:32:32.315Z,-0.90
2023-02-07T07:35:03.604Z,-0.93
2023-02-07T07:37:32.009Z,-0.92
2023-02-07T07:39:59.845Z,-0.86
2023-02-07T07:42:27.781Z,-0.90
2023-02-07T07:45:11.042Z,-0.81
2023-02-07T07:47:39.392Z,-0.77
2023-02-07T07:50:09.566Z,-0.57
2023-02-07T07:52:37.810Z,-0.44
2023-02-07T07:55:07.156Z,-0.33
2023-02-07T07:57:35.233Z,-0.25
2023-02-07T08:00:04.630Z,-0.15
2023-02-07T08:02:41.072Z,-0.02
2023-02-07T08:05:13.497Z,0.06
2023-02-07T08:07:41.693Z,0.10
2023-02-07T08:10:10.276Z,0.28
2023-02-07T08:12:38.188Z,0.41
2023-02-07T08:15:09.410Z,0.59
2023-02-07T08:17:37.568Z,0.56
2023-02-07T08:20:06.288Z,0.62
2023-02-07T08:22:35.623Z,0.72
2023-02-07T08:25:03.817Z,0.80
2023-02-07T08:27:31.509Z,0.83
2023-02-07T08:29:59.373Z,0.87
2023-02-07T08:32:28.538Z,0.95
2023-02-07T08:34:56.347Z,1.01
2023-02-07T08:37:24.249Z,1.04
2023-02-07T08:39:53.319Z,1.15
2023-02-07T08:42:21.506Z,1.20
2023-02-07T08:44:50.416Z,1.29
2023-02-07T08:47:18.932Z,1.32
2023-02-07T08:49:46.727Z,1.48
2023-02-07T08:52:14.550Z,1.57
2023-02-07T08:54:42.463Z,1.61
2023-02-07T08:57:11.716Z,1.66
2023-02-07T08:59:39.502Z,1.76
2023-02-07T09:02:07.893Z,1.77
2023-02-07T09:04:36.357Z,1.90
2023-02-07T09:07:09.519Z,1.94
2023-02-07T09:09:37.783Z,1.86
2023-02-07T09:12:06.264Z,2.02
2023-02-07T09:14:36.270Z,2.25
2023-02-07T09:17:04.950Z,2.39
2023-02-07T09:19:33.276Z,2.50
2023-02-07T09:22:01.606Z,2.63
2023-02-07T09:24:29.403Z,2.81
2023-02-07T09:26:57.243Z,2.95
2023-02-07T09:29:25.094Z,3.12
2023-02-07T09:31:54.311Z,3.18
2023-02-07T09:34:22.290Z,3.18
2023-02-07T09:36:50.420Z,3.23
2023-02-07T09:39:20.017Z,3.25
2023-02-07T09:42:05.909Z,3.40
2023-02-07T09:44:53.802Z,3.52
2023-02-07T09:47:25.522Z,3.62
2023-02-07T09:49:58.757Z,3.77
2023-02-07T09:52:34.114Z,3.83
2023-02-07T09:55:05.316Z,4.09
2023-02-07T09:57:44.304Z,4.24
2023-02-07T10:00:23.434Z,4.35
2023-02-07T10:03:04.354Z,4.54
2023-02-07T10:05:41.992Z,4.67
2023-02-07T10:08:15.336Z,5.14
2023-02-07T10:10:50.323Z,5.56
2023-02-07T10:13:49.070Z,5.91
2023-02-07T10:16:43.485Z,5.99
2023-02-07T10:19:31.824Z,6.23
2023-02-07T10:22:17.120Z,6.38
2023-02-07T10:25:19.762Z,6.63
2023-02-07T10:28:09.346Z,6.76
2023-02-07T10:33:34.110Z,7.29
2023-02-07T10:36:13.750Z,7.79
2023-02-07T10:39:06.920Z,8.11
2023-02-07T10:41:41.195Z,8.39
2023-02-07T10:44:14.010Z,8.72
2023-02-07T10:46:46.241Z,9.06
2023-02-07T10:49:25.666Z,9.10
2023-02-07T10:51:58.521Z,9.39
2023-02-07T10:54:27.287Z,9.74
2023-02-07T10:57:02.215Z,9.92
2023-02-07T10:59:39.078Z,10.10
2023-02-07T11:02:44.666Z,9.78
2023-02-07T11:05:35.278Z,9.29
2023-02-07T11:08:18.565Z,9.09
2023-02-07T11:10:47.486Z,9.08
2023-02-07T11:13:18.454Z,9.28
2023-02-07T11:15:52.581Z,9.05
2023-02-07T11:18:38.789Z,8.87
2023-02-07T11:21:21.036Z,8.75
2023-02-07T11:23:53.345Z,8.85
2023-02-07T11:26:24.073Z,9.19
2023-02-07T11:29:01.601Z,9.33
2023-02-07T11:31:37.186Z,9.69
2023-02-07T11:34:25.987Z,9.99
2023-02-07T11:36:55.596Z,10.46
2023-02-07T11:39:25.883Z,10.43
2023-02-07T11:41:59.535Z,10.25
2023-02-07T11:44:31.057Z,10.47
2023-02-07T11:47:05.184Z,10.54
2023-02-07T11:49:45.675Z,10.65
2023-02-07T11:52:14.493Z,11.12
2023-02-07T11:54:53.004Z,11.43
2023-02-07T11:57:26.702Z,11.69
2023-02-07T12:00:08.804Z,11.78
2023-02-07T12:02:51.810Z,11.57
2023-02-07T12:05:27.115Z,10.93
2023-02-07T12:08:03.438Z,10.98
2023-02-07T12:10:37.098Z,11.32
2023-02-07T12:13:13.685Z,10.92
2023-02-07T12:15:47.888Z,11.28
2023-02-07T12:18:28.524Z,11.15
2023-02-07T12:21:06.175Z,11.49
2023-02-07T12:23:45.263Z,11.66
2023-02-07T12:26:23.785Z,11.56
2023-02-07T12:29:17.413Z,11.44
2023-02-07T12:31:59.249Z,10.71
2023-02-07T12:34:34.807Z,9.89
2023-02-07T12:37:18.803Z,9.91
2023-02-07T12:40:00.808Z,10.29
2023-02-07T12:42:39.052Z,10.03
2023-02-07T12:45:15.341Z,10.58
2023-02-07T12:47:56.884Z,11.39
2023-02-07T12:50:53.193Z,11.64
2023-02-07T12:53:48.229Z,11.34
2023-02-07T12:56:42.616Z,10.98
2023-02-07T12:59:25.475Z,10.99
2023-02-07T13:02:10.415Z,11.67
2023-02-07T13:05:16.069Z,12.22
2023-02-07T13:07:58.617Z,12.52
2023-02-07T13:10:40.756Z,12.63
2023-02-07T13:13:23.852Z,13.23
2023-02-07T13:16:04.136Z,13.14
2023-02-07T13:18:44.745Z,13.13
2023-02-07T13:21:24.239Z,13.45
2023-02-07T13:24:00.352Z,13.70
2023-02-07T13:26:29.288Z,13.51
2023-02-07T13:29:01.197Z,13.86
2023-02-07T13:31:39.831Z,13.84
2023-02-07T13:34:18.024Z,13.77
2023-02-07T13:36:49.335Z,13.06
2023-02-07T13:39:39.440Z,13.34
2023-02-07T13:42:20.672Z,13.30
2023-02-07T13:45:01.048Z,12.58
2023-02-07T13:47:46.500Z,12.36
2023-02-07T13:50:27.408Z,12.59
2023-02-07T13:53:05.702Z,13.04
2023-02-07T13:55:38.167Z,13.08
2023-02-07T13:59:10.915Z,13.23
2023-02-07T14:01:50.416Z,13.26
2023-02-07T14:04:21.840Z,13.34
2023-02-07T14:07:11.645Z,13.30
2023-02-07T14:12:37.024Z,12.03
2023-02-07T14:15:55.221Z,10.73
2023-02-07T14:18:49.817Z,10.42
2023-02-07T14:21:30.896Z,9.87
2023-02-07T14:24:16.961Z,9.30
2023-02-07T14:27:04.697Z,9.62
2023-02-07T14:29:54.753Z,9.64
2023-02-07T14:32:40.650Z,9.55
2023-02-07T14:35:33.119Z,9.39
2023-02-07T14:38:21.183Z,9.58
2023-02-07T14:41:09.456Z,9.42
2023-02-07T14:44:07.477Z,9.24
2023-02-07T14:46:40.024Z,9.51
2023-02-07T14:49:18.641Z,9.93
2023-02-07T14:51:50.975Z,9.97
2023-02-07T14:54:29.175Z,10.19
2023-02-07T14:57:08.635Z,10.06
2023-02-07T14:59:43.781Z,9.73
2023-02-07T15:02:32.614Z,9.23
2023-02-07T15:05:20.113Z,8.99
2023-02-07T15:07:56.449Z,9.16
2023-02-07T15:10:30.726Z,8.98
2023-02-07T15:12:59.798Z,8.45
2023-02-07T15:15:31.563Z,8.03
2023-02-07T15:18:02.442Z,7.72
2023-02-07T15:20:34.727Z,7.64
2023-02-07T15:23:07.588Z,7.36
2023-02-07T15:25:41.852Z,7.15
2023-02-07T15:28:27.472Z,6.90
2023-02-07T15:30:59.670Z,6.79
2023-02-07T15:33:36.665Z,6.73
2023-02-07T15:36:06.599Z,6.50
2023-02-07T15:38:35.550Z,6.43
2023-02-07T15:41:05.437Z,6.32
2023-02-07T15:43:35.287Z,6.25
2023-02-07T15:46:09.640Z,6.21
2023-02-07T15:48:50.614Z,6.12
2023-02-07T15:51:22.865Z,6.13
2023-02-07T15:53:56.857Z,6.10
2023-02-07T15:56:29.949Z,5.89
2023-02-07T15:59:03.290Z,5.75
2023-02-07T16:01:32.038Z,5.61
2023-02-07T16:04:00.250Z,5.53
2023-02-07T16:06:30.922Z,5.47
2023-02-07T16:09:01.796Z,5.36
2023-02-07T16:11:40.055Z,5.40
2023-02-07T16:14:23.162Z,5.27
2023-02-07T16:16:54.726Z,5.31
2023-02-07T16:19:27.484Z,5.21
2023-02-07T16:22:05.143Z,5.12
2023-02-07T16:24:36.675Z,5.04
2023-02-07T16:27:07.128Z,4.97
2023-02-07T16:29:37.039Z,4.88
2023-02-07T16:32:05.452Z,4.81
2023-02-07T16:34:33.725Z,4.69
2023-02-07T16:37:01.966Z,4.62
2023-02-07T16:39:30.027Z,4.58
2023-02-07T16:42:07.564Z,4.58
2023-02-07T16:44:36.942Z,4.43
2023-02-07T16:47:05.391Z,4.29
2023-02-07T16:49:34.272Z,4.13
2023-02-07T16:52:02.292Z,4.00
2023-02-07T16:54:30.331Z,3.92
2023-02-07T16:57:03.845Z,3.91
2023-02-07T16:59:33.558Z,3.84
2023-02-07T17:02:01.650Z,3.80
2023-02-07T17:04:29.714Z,3.72
2023-02-07T17:06:57.585Z,3.73
2023-02-07T17:09:26.197Z,3.74
2023-02-07T17:11:55.360Z,3.71
2023-02-07T17:14:23.459Z,3.72
2023-02-07T17:16:52.895Z,3.79
2023-02-07T17:19:23.882Z,3.79
2023-02-07T17:21:52.789Z,3.69
2023-02-07T17:24:21.338Z,3.66
2023-02-07T17:27:01.124Z,3.60
2023-02-07T17:29:30.046Z,3.54
2023-02-07T17:31:59.331Z,3.54
2023-02-07T17:34:27.498Z,3.53
2023-02-07T17:36:55.633Z,3.53
2023-02-07T17:39:23.549Z,3.54
2023-02-07T17:41:51.501Z,3.45
2023-02-07T17:44:22.380Z,3.40
2023-02-07T17:46:50.458Z,3.37
2023-02-07T17:49:19.974Z,3.37
2023-02-07T17:51:48.183Z,3.32
2023-02-07T17:54:16.153Z,3.28
2023-02-07T17:56:44.217Z,3.27
2023-02-07T17:59:23.026Z,3.22
2023-02-07T18:01:51.474Z,3.11
2023-02-07T18:04:21.784Z,2.91
2023-02-07T18:06:49.801Z,2.85
2023-02-07T18:09:20.048Z,2.87
2023-02-07T18:11:48.558Z,2.88
2023-02-07T18:14:16.649Z,2.86
2023-02-07T18:16:44.818Z,2.86
2023-02-07T18:19:17.004Z,2.75
2023-02-07T18:21:46.557Z,2.58
2023-02-07T18:24:14.878Z,2.50
2023-02-07T18:26:44.203Z,2.51
2023-02-07T18:29:12.501Z,2.50
2023-02-07T18:31:40.452Z,2.46
2023-02-07T18:34:08.455Z,2.39
2023-02-07T18:36:40.330Z,2.40
2023-02-07T18:39:11.884Z,2.35
2023-02-07T18:41:40.129Z,2.31
2023-02-07T18:44:08.131Z,2.26
2023-02-07T18:46:37.226Z,2.22
2023-02-07T18:49:05.403Z,2.26
2023-02-07T18:51:34.065Z,2.34
2023-02-07T18:54:02.276Z,2.37
2023-02-07T18:56:35.402Z,2.46
2023-02-07T18:59:05.016Z,2.50
2023-02-07T19:01:35.175Z,2.53
2023-02-07T19:04:03.506Z,2.54
2023-02-07T19:06:34.032Z,2.50
2023-02-07T19:09:02.230Z,2.50
2023-02-07T19:11:32.220Z,2.47
2023-02-07T19:14:00.192Z,2.40
2023-02-07T19:16:28.544Z,2.37
2023-02-07T19:18:58.828Z,2.34
2023-02-07T19:21:27.417Z,2.31
2023-02-07T19:23:57.602Z,2.30
2023-02-07T19:26:25.870Z,2.30
2023-02-07T19:28:57.286Z,2.26
2023-02-07T19:31:29.166Z,2.27
2023-02-07T19:33:59.195Z,2.25
2023-02-07T19:36:30.236Z,2.21
2023-02-07T19:38:59.216Z,2.12
2023-02-07T19:41:30.756Z,2.03
2023-02-07T19:44:00.841Z,2.01
2023-02-07T19:46:29.223Z,1.99
2023-02-07T19:48:58.518Z,1.91
2023-02-07T19:51:29.589Z,1.87
2023-02-07T19:53:58.894Z,1.84
2023-02-07T19:56:32.039Z,1.78
2023-02-07T19:59:04.459Z,1.76
2023-02-07T20:01:35.552Z,1.80
2023-02-07T20:04:05.520Z,1.82
2023-02-07T20:06:35.258Z,1.83
2023-02-07T20:09:06.829Z,1.81
2023-02-07T20:11:35.314Z,1.78
2023-02-07T20:14:05.835Z,1.75
2023-02-07T20:16:38.656Z,1.75
2023-02-07T20:19:08.220Z,1.72
2023-02-07T20:21:37.068Z,1.69
2023-02-07T20:24:06.316Z,1.70
2023-02-07T20:26:40.166Z,1.68
2023-02-07T20:29:14.799Z,1.64
2023-02-07T20:31:44.802Z,1.62
2023-02-07T20:34:14.414Z,1.48
2023-02-07T20:36:43.534Z,1.46
2023-02-07T20:39:14.809Z,1.52
2023-02-07T20:41:46.161Z,1.57
2023-02-07T20:44:18.877Z,1.60
2023-02-07T20:46:49.301Z,1.62
2023-02-07T20:49:22.609Z,1.63
2023-02-07T20:51:52.977Z,1.62
2023-02-07T20:54:24.313Z,1.59
2023-02-07T20:56:54.297Z,1.56
2023-02-07T20:59:26.181Z,1.60
2023-02-07T21:01:55.421Z,1.62
2023-02-07T21:04:24.096Z,1.61
2023-02-07T21:06:52.866Z,1.59
2023-02-07T21:09:21.227Z,1.56
2023-02-07T21:11:52.276Z,1.56
2023-02-07T21:14:25.676Z,1.53
2023-02-07T21:16:55.430Z,1.54
2023-02-07T21:19:25.054Z,1.50
2023-02-07T21:21:54.990Z,1.41
2023-02-07T21:24:23.563Z,1.34
2023-02-07T21:26:54.045Z,1.32
2023-02-07T21:29:24.728Z,1.30
2023-02-07T21:31:52.710Z,1.21
2023-02-07T21:34:21.371Z,1.21
2023-02-07T21:36:50.572Z,1.21
2023-02-07T21:39:19.336Z,1.19
2023-02-07T21:41:48.010Z,1.17
2023-02-07T21:44:17.438Z,1.15
2023-02-07T21:46:48.271Z,1.16
2023-02-07T21:49:20.424Z,1.18
2023-02-07T21:51:50.170Z,1.11
2023-02-07T21:54:18.678Z,1.05
2023-02-07T21:56:49.697Z,1.00
2023-02-07T21:59:20.024Z,0.92
2023-02-07T22:01:49.868Z,0.85
2023-02-07T22:04:18.650Z,0.85
2023-02-07T22:06:49.183Z,0.85
2023-02-07T22:09:20.008Z,0.85
2023-02-07T22:11:48.200Z,0.82
2023-02-07T22:14:17.266Z,0.77
2023-02-07T22:16:46.333Z,0.70
2023-02-07T22:19:17.215Z,0.68
2023-02-07T22:21:46.767Z,0.69
2023-02-07T22:24:17.991Z,0.78
2023-02-07T22:26:45.966Z,0.82
2023-02-07T22:29:13.900Z,0.83
2023-02-07T22:31:42.942Z,0.81
2023-02-07T22:34:13.559Z,0.74
2023-02-07T22:36:44.764Z,0.74
2023-02-07T22:39:33.116Z,0.71
2023-02-07T22:42:19.649Z,0.64
2023-02-07T22:44:47.454Z,0.53
2023-02-07T22:47:15.231Z,0.45
2023-02-07T22:49:42.991Z,0.44
2023-02-07T22:52:12.063Z,0.42
2023-02-07T22:54:39.900Z,0.38
2023-02-07T22:57:12.079Z,0.32
2023-02-07T22:59:39.909Z,0.26
2023-02-07T23:02:08.054Z,0.22
2023-02-07T23:04:36.018Z,0.16
2023-02-07T23:07:03.766Z,0.13
2023-02-07T23:09:33.010Z,0.12
2023-02-07T23:12:00.904Z,0.08
2023-02-07T23:14:28.693Z,0.08
2023-02-07T23:16:56.511Z,0.07
2023-02-07T23:19:24.583Z,0.06
2023-02-07T23:21:52.528Z,0.03
2023-02-07T23:24:20.322Z,-0.02
2023-02-07T23:26:49.528Z,-0.04
2023-02-07T23:29:17.516Z,-0.04
2023-02-07T23:31:46.164Z,0.04
2023-02-07T23:34:14.127Z,0.08
2023-02-07T23:36:42.272Z,0.08
2023-02-07T23:39:10.849Z,0.09
2023-02-07T23:41:38.949Z,0.02
2023-02-07T23:44:08.146Z,-0.02
2023-02-07T23:46:36.127Z,-0.07
2023-02-07T23:49:05.177Z,-0.08
2023-02-07T23:51:32.912Z,-0.10
2023-02-07T23:54:00.763Z,-0.06
2023-02-07T23:56:28.658Z,-0.01
2023-02-07T23:58:56.492Z,0.04
